sensor_id;sensor_type;location;lat;lon;timestamp;pressure;altitude;pressure_sealevel;temperature;humidity
47530;BME280;33272;51.922;7.730;2023-06-14T00:00:46;146997.31;;;18.11;50.74
47530;BME280;33272;51.922;7.730;2023-06-14T00:03:14;146987.13;;;18.07;50.99
47530;BME280;33272;51.922;7.730;2023-06-14T00:05:43;146975.63;;;18.02;51.20
47530;BME280;33272;51.922;7.730;2023-06-14T00:08:14;146961.59;;;17.97;51.16
47530;BME280;33272;51.922;7.730;2023-06-14T00:10:41;146946.31;;;17.91;51.61
47530;BME280;33272;51.922;7.730;2023-06-14T00:13:08;146936.09;;;17.87;51.59
47530;BME280;33272;51.922;7.730;2023-06-14T00:15:36;146927.19;;;17.83;51.81
47530;BME280;33272;51.922;7.730;2023-06-14T00:18:03;146915.72;;;17.78;51.70
47530;BME280;33272;51.922;7.730;2023-06-14T00:20:32;146904.19;;;17.74;52.16
47530;BME280;33272;51.922;7.730;2023-06-14T00:22:59;146897.78;;;17.71;52.26
47530;BME280;33272;51.922;7.730;2023-06-14T00:25:28;146891.47;;;17.69;52.53
47530;BME280;33272;51.922;7.730;2023-06-14T00:27:56;146881.22;;;17.65;52.60
47530;BME280;33272;51.922;7.730;2023-06-14T00:30:24;146872.31;;;17.61;52.66
47530;BME280;33272;51.922;7.730;2023-06-14T00:32:56;146862.13;;;17.57;52.50
47530;BME280;33272;51.922;7.730;2023-06-14T00:35:23;146854.47;;;17.54;52.94
47530;BME280;33272;51.922;7.730;2023-06-14T00:37:51;146837.91;;;17.47;53.22
47530;BME280;33272;51.922;7.730;2023-06-14T00:40:18;146826.44;;;17.43;53.32
47530;BME280;33272;51.922;7.730;2023-06-14T00:42:46;146812.44;;;17.37;53.59
47530;BME280;33272;51.922;7.730;2023-06-14T00:45:13;146800.94;;;17.32;53.87
47530;BME280;33272;51.922;7.730;2023-06-14T00:47:42;146785.66;;;17.26;53.93
47530;BME280;33272;51.922;7.730;2023-06-14T00:50:10;146771.63;;;17.21;53.96
47530;BME280;33272;51.922;7.730;2023-06-14T00:52:37;146758.91;;;17.16;54.54
47530;BME280;33272;51.922;7.730;2023-06-14T00:55:05;146746.16;;;17.10;55.04
47530;BME280;33272;51.922;7.730;2023-06-14T00:57:32;146734.72;;;17.06;55.12
47530;BME280;33272;51.922;7.730;2023-06-14T01:00:06;146720.69;;;17.00;55.15
47530;BME280;33272;51.922;7.730;2023-06-14T01:02:35;146707.91;;;16.95;55.78
47530;BME280;33272;51.922;7.730;2023-06-14T01:05:03;146695.22;;;16.90;55.74
47530;BME280;33272;51.922;7.730;2023-06-14T01:07:43;146685.00;;;16.86;56.22
47530;BME280;33272;51.922;7.730;2023-06-14T01:10:34;146669.69;;;16.80;56.23
47530;BME280;33272;51.922;7.730;2023-06-14T01:13:09;146662.06;;;16.77;56.41
47530;BME280;33272;51.922;7.730;2023-06-14T01:15:39;146654.38;;;16.74;56.52
47530;BME280;33272;51.922;7.730;2023-06-14T01:18:07;146646.72;;;16.71;56.76
47530;BME280;33272;51.922;7.730;2023-06-14T01:20:43;146639.06;;;16.67;56.68
47530;BME280;33272;51.922;7.730;2023-06-14T01:23:14;146632.75;;;16.65;56.89
47530;BME280;33272;51.922;7.730;2023-06-14T01:25:41;146625.09;;;16.62;57.04
47530;BME280;33272;51.922;7.730;2023-06-14T01:28:11;146617.47;;;16.59;57.54
47530;BME280;33272;51.922;7.730;2023-06-14T01:30:40;146613.63;;;16.57;57.41
47530;BME280;33272;51.922;7.730;2023-06-14T01:33:12;146605.97;;;16.54;57.51
47530;BME280;33272;51.922;7.730;2023-06-14T01:35:41;146595.78;;;16.50;58.46
47530;BME280;33272;51.922;7.730;2023-06-14T01:38:08;146588.16;;;16.47;57.88
47530;BME280;33272;51.922;7.730;2023-06-14T01:40:38;146583.03;;;16.45;58.41
47530;BME280;33272;51.922;7.730;2023-06-14T01:43:06;146575.41;;;16.42;58.13
47530;BME280;33272;51.922;7.730;2023-06-14T01:45:33;146569.06;;;16.39;58.14
47530;BME280;33272;51.922;7.730;2023-06-14T01:48:01;146563.97;;;16.37;58.81
47530;BME280;33272;51.922;7.730;2023-06-14T01:50:29;146558.84;;;16.35;58.89
47530;BME280;33272;51.922;7.730;2023-06-14T01:52:57;146553.78;;;16.33;58.73
47530;BME280;33272;51.922;7.730;2023-06-14T01:55:24;146556.31;;;16.34;58.82
47530;BME280;33272;51.922;7.730;2023-06-14T01:57:53;146556.31;;;16.34;58.84
47530;BME280;33272;51.922;7.730;2023-06-14T02:00:20;146553.78;;;16.33;58.76
47530;BME280;33272;51.922;7.730;2023-06-14T02:02:47;146549.94;;;16.32;59.45
47530;BME280;33272;51.922;7.730;2023-06-14T02:05:14;146543.56;;;16.29;59.20
47530;BME280;33272;51.922;7.730;2023-06-14T02:07:44;146538.50;;;16.27;59.03
47530;BME280;33272;51.922;7.730;2023-06-14T02:10:12;146533.41;;;16.25;59.56
47530;BME280;33272;51.922;7.730;2023-06-14T02:12:40;146520.66;;;16.20;59.75
47530;BME280;33272;51.922;7.730;2023-06-14T02:15:09;146504.09;;;16.13;60.06
47530;BME280;33272;51.922;7.730;2023-06-14T02:17:42;146493.94;;;16.09;60.74
47530;BME280;33272;51.922;7.730;2023-06-14T02:20:10;146482.50;;;16.05;60.69
47530;BME280;33272;51.922;7.730;2023-06-14T02:22:38;146478.66;;;16.03;60.58
47530;BME280;33272;51.922;7.730;2023-06-14T02:25:05;146467.22;;;15.98;61.12
47530;BME280;33272;51.922;7.730;2023-06-14T02:27:33;146462.09;;;15.96;61.39
47530;BME280;33272;51.922;7.730;2023-06-14T02:30:00;146450.63;;;15.92;61.53
47530;BME280;33272;51.922;7.730;2023-06-14T02:32:28;146437.94;;;15.87;61.91
47530;BME280;33272;51.922;7.730;2023-06-14T02:34:55;146422.66;;;15.81;62.04
47530;BME280;33272;51.922;7.730;2023-06-14T02:37:22;146406.09;;;15.74;62.13
47530;BME280;33272;51.922;7.730;2023-06-14T02:39:49;146393.38;;;15.69;62.73
47530;BME280;33272;51.922;7.730;2023-06-14T02:42:16;146380.63;;;15.64;62.75
47530;BME280;33272;51.922;7.730;2023-06-14T02:44:43;146364.03;;;15.57;62.96
47530;BME280;33272;51.922;7.730;2023-06-14T02:47:10;146346.22;;;15.50;63.71
47530;BME280;33272;51.922;7.730;2023-06-14T02:49:39;146329.69;;;15.43;63.75
47530;BME280;33272;51.922;7.730;2023-06-14T02:52:06;146318.25;;;15.39;64.81
47530;BME280;33272;51.922;7.730;2023-06-14T02:54:34;146303.00;;;15.33;64.58
47530;BME280;33272;51.922;7.730;2023-06-14T02:57:02;146295.34;;;15.29;64.82
47530;BME280;33272;51.922;7.730;2023-06-14T02:59:29;146287.72;;;15.26;65.20
47530;BME280;33272;51.922;7.730;2023-06-14T03:01:56;146282.63;;;15.24;65.46
47530;BME280;33272;51.922;7.730;2023-06-14T03:04:22;146274.97;;;15.21;65.64
47530;BME280;33272;51.922;7.730;2023-06-14T03:06:53;146268.59;;;15.19;65.50
47530;BME280;33272;51.922;7.730;2023-06-14T03:09:20;146262.25;;;15.16;65.51
47530;BME280;33272;51.922;7.730;2023-06-14T03:11:47;146253.34;;;15.13;65.77
47530;BME280;33272;51.922;7.730;2023-06-14T03:14:14;146238.06;;;15.06;66.50
47530;BME280;33272;51.922;7.730;2023-06-14T03:16:43;146230.44;;;15.03;66.67
47530;BME280;33272;51.922;7.730;2023-06-14T03:19:09;146225.38;;;15.01;66.94
47530;BME280;33272;51.922;7.730;2023-06-14T03:21:37;146231.75;;;15.04;67.12
47530;BME280;33272;51.922;7.730;2023-06-14T03:24:06;146239.38;;;15.07;66.72
47530;BME280;33272;51.922;7.730;2023-06-14T03:26:33;146248.28;;;15.11;66.57
47530;BME280;33272;51.922;7.730;2023-06-14T03:29:02;146258.44;;;15.15;66.83
47530;BME280;33272;51.922;7.730;2023-06-14T03:31:29;146266.06;;;15.18;66.55
47530;BME280;33272;51.922;7.730;2023-06-14T03:33:58;146273.72;;;15.21;66.59
47530;BME280;33272;51.922;7.730;2023-06-14T03:36:25;146281.34;;;15.24;66.67
47530;BME280;33272;51.922;7.730;2023-06-14T03:38:53;146285.13;;;15.25;66.80
47530;BME280;33272;51.922;7.730;2023-06-14T03:41:21;146301.72;;;15.32;66.94
47530;BME280;33272;51.922;7.730;2023-06-14T03:43:48;146395.94;;;15.70;67.00
47530;BME280;33272;51.922;7.730;2023-06-14T03:46:15;146539.78;;;16.28;66.16
47530;BME280;33272;51.922;7.730;2023-06-14T03:48:43;146686.25;;;16.86;64.64
47530;BME280;33272;51.922;7.730;2023-06-14T03:51:10;146783.13;;;17.25;63.56
47530;BME280;33272;51.922;7.730;2023-06-14T03:53:37;146816.25;;;17.38;62.80
47530;BME280;33272;51.922;7.730;2023-06-14T03:56:04;146788.19;;;17.27;63.17
47530;BME280;33272;51.922;7.730;2023-06-14T03:58:33;146743.63;;;17.09;63.36
47530;BME280;33272;51.922;7.730;2023-06-14T04:01:00;146690.09;;;16.88;64.08
47530;BME280;33272;51.922;7.730;2023-06-14T04:03:27;146649.31;;;16.72;64.03
47530;BME280;33272;51.922;7.730;2023-06-14T04:05:55;146608.56;;;16.55;64.43
47530;BME280;33272;51.922;7.730;2023-06-14T04:08:25;146577.97;;;16.43;64.88
47530;BME280;33272;51.922;7.730;2023-06-14T04:10:52;146562.69;;;16.37;64.76
47530;BME280;33272;51.922;7.730;2023-06-14T04:13:19;146577.97;;;16.43;65.16
47530;BME280;33272;51.922;7.730;2023-06-14T04:15:47;146700.28;;;16.92;65.69
47530;BME280;33272;51.922;7.730;2023-06-14T04:18:14;146885.06;;;17.66;63.60
47530;BME280;33272;51.922;7.730;2023-06-14T04:20:41;147077.63;;;18.43;61.57
47530;BME280;33272;51.922;7.730;2023-06-14T04:23:12;147247.38;;;19.11;59.58
47530;BME280;33272;51.922;7.730;2023-06-14T04:25:40;147316.31;;;19.39;58.33
47530;BME280;33272;51.922;7.730;2023-06-14T04:28:11;147306.06;;;19.35;58.21
47530;BME280;33272;51.922;7.730;2023-06-14T04:30:38;147295.88;;;19.31;57.67
47530;BME280;33272;51.922;7.730;2023-06-14T04:33:07;147255.03;;;19.14;57.27
47530;BME280;33272;51.922;7.730;2023-06-14T04:35:35;147209.09;;;18.96;57.63
47530;BME280;33272;51.922;7.730;2023-06-14T04:38:03;147159.34;;;18.76;58.20
47530;BME280;33272;51.922;7.730;2023-06-14T04:40:31;147105.72;;;18.55;58.50
47530;BME280;33272;51.922;7.730;2023-06-14T04:43:01;147047.03;;;18.31;59.14
47530;BME280;33272;51.922;7.730;2023-06-14T04:45:30;146994.78;;;18.10;59.91
47530;BME280;33272;51.922;7.730;2023-06-14T04:47:59;146959.03;;;17.96;60.49
47530;BME280;33272;51.922;7.730;2023-06-14T04:50:27;146936.09;;;17.87;60.94
47530;BME280;33272;51.922;7.730;2023-06-14T04:52:59;146913.16;;;17.77;61.59
47530;BME280;33272;51.922;7.730;2023-06-14T04:55:26;146909.28;;;17.76;61.58
47530;BME280;33272;51.922;7.730;2023-06-14T04:57:53;146902.91;;;17.73;61.99
47530;BME280;33272;51.922;7.730;2023-06-14T05:00:20;146905.44;;;17.74;62.41
47530;BME280;33272;51.922;7.730;2023-06-14T05:02:49;146913.16;;;17.77;62.62
47530;BME280;33272;51.922;7.730;2023-06-14T05:05:16;146934.81;;;17.86;63.21
47530;BME280;33272;51.922;7.730;2023-06-14T05:07:46;146953.97;;;17.94;62.97
47530;BME280;33272;51.922;7.730;2023-06-14T05:10:13;146974.34;;;18.02;62.67
47530;BME280;33272;51.922;7.730;2023-06-14T05:12:40;146996.03;;;18.11;62.50
47530;BME280;33272;51.922;7.730;2023-06-14T05:15:10;147027.91;;;18.23;62.14
47530;BME280;33272;51.922;7.730;2023-06-14T05:17:37;147069.97;;;18.40;61.96
47530;BME280;33272;51.922;7.730;2023-06-14T05:20:07;147108.25;;;18.56;61.35
47530;BME280;33272;51.922;7.730;2023-06-14T05:22:36;147118.44;;;18.60;61.13
47530;BME280;33272;51.922;7.730;2023-06-14T05:25:06;147119.75;;;18.60;61.42
47530;BME280;33272;51.922;7.730;2023-06-14T05:27:33;147129.94;;;18.64;61.13
47530;BME280;33272;51.922;7.730;2023-06-14T05:30:01;147141.41;;;18.69;61.21
47530;BME280;33272;51.922;7.730;2023-06-14T05:32:29;147186.13;;;18.87;61.50
47530;BME280;33272;51.922;7.730;2023-06-14T05:34:56;147255.03;;;19.14;61.18
47530;BME280;33272;51.922;7.730;2023-06-14T05:37:23;147366.06;;;19.59;60.67
47530;BME280;33272;51.922;7.730;2023-06-14T05:39:50;147533.38;;;20.26;59.59
47530;BME280;33272;51.922;7.730;2023-06-14T05:42:18;147722.50;;;21.01;57.73
47530;BME280;33272;51.922;7.730;2023-06-14T05:44:45;147897.66;;;21.71;56.34
47530;BME280;33272;51.922;7.730;2023-06-14T05:47:12;148058.88;;;22.36;54.65
47530;BME280;33272;51.922;7.730;2023-06-14T05:49:39;148188.06;;;22.87;53.29
47530;BME280;33272;51.922;7.730;2023-06-14T05:52:08;148319.97;;;23.40;51.95
47530;BME280;33272;51.922;7.730;2023-06-14T05:54:35;148421.16;;;23.80;51.09
47530;BME280;33272;51.922;7.730;2023-06-14T05:57:03;148514.59;;;24.18;50.14
47530;BME280;33272;51.922;7.730;2023-06-14T05:59:33;148600.47;;;24.52;49.43
47530;BME280;33272;51.922;7.730;2023-06-14T06:02:00;148637.66;;;24.67;48.47
47530;BME280;33272;51.922;7.730;2023-06-14T06:04:27;148645.34;;;24.70;48.46
47530;BME280;33272;51.922;7.730;2023-06-14T06:06:54;148709.41;;;24.95;48.12
47530;BME280;33272;51.922;7.730;2023-06-14T06:09:21;148774.78;;;25.22;47.13
47530;BME280;33272;51.922;7.730;2023-06-14T06:11:48;148762.00;;;25.16;46.40
47530;BME280;33272;51.922;7.730;2023-06-14T06:14:15;148783.75;;;25.25;46.43
47530;BME280;33272;51.922;7.730;2023-06-14T06:16:44;148800.47;;;25.32;45.28
47530;BME280;33272;51.922;7.730;2023-06-14T06:19:11;148777.41;;;25.23;45.73
47530;BME280;33272;51.922;7.730;2023-06-14T06:21:38;148756.88;;;25.14;44.87
47530;BME280;33272;51.922;7.730;2023-06-14T06:24:05;148742.72;;;25.09;44.93
47530;BME280;33272;51.922;7.730;2023-06-14T06:26:33;148740.16;;;25.08;44.82
47530;BME280;33272;51.922;7.730;2023-06-14T06:29:00;148674.81;;;24.82;44.13
47530;BME280;33272;51.922;7.730;2023-06-14T06:31:27;148668.41;;;24.79;44.75
47530;BME280;33272;51.922;7.730;2023-06-14T06:33:55;148674.81;;;24.82;43.92
47530;BME280;33272;51.922;7.730;2023-06-14T06:36:22;148635.09;;;24.66;44.24
47530;BME280;33272;51.922;7.730;2023-06-14T06:38:49;148594.06;;;24.49;43.82
47530;BME280;33272;51.922;7.730;2023-06-14T06:41:16;148613.31;;;24.57;44.05
47530;BME280;33272;51.922;7.730;2023-06-14T06:43:43;148662.00;;;24.77;43.58
47530;BME280;33272;51.922;7.730;2023-06-14T06:46:10;148703.00;;;24.93;43.29
47530;BME280;33272;51.922;7.730;2023-06-14T06:48:38;148726.06;;;25.02;43.41
47530;BME280;33272;51.922;7.730;2023-06-14T06:51:06;148735.03;;;25.06;43.11
47530;BME280;33272;51.922;7.730;2023-06-14T06:53:33;148660.72;;;24.76;42.92
47530;BME280;33272;51.922;7.730;2023-06-14T06:56:00;148655.56;;;24.74;42.46
47530;BME280;33272;51.922;7.730;2023-06-14T06:58:27;148665.84;;;24.78;43.07
47530;BME280;33272;51.922;7.730;2023-06-14T07:00:54;148623.53;;;24.61;42.25
47530;BME280;33272;51.922;7.730;2023-06-14T07:03:21;148644.06;;;24.69;42.09
47530;BME280;33272;51.922;7.730;2023-06-14T07:05:48;148676.09;;;24.82;41.59
47530;BME280;33272;51.922;7.730;2023-06-14T07:08:17;148688.88;;;24.87;40.49
47530;BME280;33272;51.922;7.730;2023-06-14T07:10:44;148690.19;;;24.88;40.75
47530;BME280;33272;51.922;7.730;2023-06-14T07:13:11;148636.38;;;24.66;41.33
47530;BME280;33272;51.922;7.730;2023-06-14T07:15:38;148594.06;;;24.49;41.41
47530;BME280;33272;51.922;7.730;2023-06-14T07:18:05;148524.88;;;24.22;41.19
47530;BME280;33272;51.922;7.730;2023-06-14T07:20:32;148482.59;;;24.05;41.70
47530;BME280;33272;51.922;7.730;2023-06-14T07:22:59;148471.09;;;24.00;41.91
47530;BME280;33272;51.922;7.730;2023-06-14T07:25:28;148418.56;;;23.79;41.90
47530;BME280;33272;51.922;7.730;2023-06-14T07:27:54;148373.72;;;23.62;41.96
47530;BME280;33272;51.922;7.730;2023-06-14T07:30:22;148308.41;;;23.35;42.21
47530;BME280;33272;51.922;7.730;2023-06-14T07:32:51;148284.09;;;23.26;42.08
47530;BME280;33272;51.922;7.730;2023-06-14T07:35:18;148258.50;;;23.16;42.37
47530;BME280;33272;51.922;7.730;2023-06-14T07:37:45;148226.50;;;23.03;42.78
47530;BME280;33272;51.922;7.730;2023-06-14T07:40:13;148235.47;;;23.06;42.43
47530;BME280;33272;51.922;7.730;2023-06-14T07:42:41;148202.16;;;22.93;42.74
47530;BME280;33272;51.922;7.730;2023-06-14T07:45:12;148198.28;;;22.91;42.77
47530;BME280;33272;51.922;7.730;2023-06-14T07:47:39;148185.53;;;22.86;42.78
47530;BME280;33272;51.922;7.730;2023-06-14T07:50:07;148121.56;;;22.61;42.85
47530;BME280;33272;51.922;7.730;2023-06-14T07:52:34;148083.16;;;22.46;43.29
47530;BME280;33272;51.922;7.730;2023-06-14T07:55:01;148048.59;;;22.32;43.68
47530;BME280;33272;51.922;7.730;2023-06-14T07:57:28;148066.53;;;22.39;43.73
47530;BME280;33272;51.922;7.730;2023-06-14T07:59:56;148075.50;;;22.42;43.54
47530;BME280;33272;51.922;7.730;2023-06-14T08:02:23;148067.81;;;22.39;43.73
47530;BME280;33272;51.922;7.730;2023-06-14T08:04:50;148061.41;;;22.37;43.79
47530;BME280;33272;51.922;7.730;2023-06-14T08:07:18;148062.69;;;22.37;44.03
47530;BME280;33272;51.922;7.730;2023-06-14T08:09:45;148062.69;;;22.37;43.82
47530;BME280;33272;51.922;7.730;2023-06-14T08:12:13;148065.28;;;22.38;43.92
47530;BME280;33272;51.922;7.730;2023-06-14T08:14:40;148058.88;;;22.36;43.67
47530;BME280;33272;51.922;7.730;2023-06-14T08:17:08;148037.13;;;22.27;43.56
47530;BME280;33272;51.922;7.730;2023-06-14T08:19:35;147992.28;;;22.09;43.67
47530;BME280;33272;51.922;7.730;2023-06-14T08:22:02;147998.69;;;22.12;43.79
47530;BME280;33272;51.922;7.730;2023-06-14T08:24:30;147993.56;;;22.10;43.73
47530;BME280;33272;51.922;7.730;2023-06-14T08:26:57;148003.81;;;22.14;43.34
47530;BME280;33272;51.922;7.730;2023-06-14T08:29:26;148006.38;;;22.15;43.09
47530;BME280;33272;51.922;7.730;2023-06-14T08:31:55;147997.41;;;22.11;42.70
47530;BME280;33272;51.922;7.730;2023-06-14T08:34:23;147965.44;;;21.98;42.71
47530;BME280;33272;51.922;7.730;2023-06-14T08:36:50;147957.78;;;21.95;42.84
47530;BME280;33272;51.922;7.730;2023-06-14T08:39:17;147944.97;;;21.90;42.92
47530;BME280;33272;51.922;7.730;2023-06-14T08:41:46;147932.22;;;21.85;42.69
47530;BME280;33272;51.922;7.730;2023-06-14T08:44:15;147934.75;;;21.86;42.51
47530;BME280;33272;51.922;7.730;2023-06-14T08:46:42;147952.66;;;21.93;42.82
47530;BME280;33272;51.922;7.730;2023-06-14T08:49:17;147960.31;;;21.96;42.43
47530;BME280;33272;51.922;7.730;2023-06-14T08:51:45;147920.69;;;21.81;42.92
47530;BME280;33272;51.922;7.730;2023-06-14T08:54:17;147893.84;;;21.70;43.00
47530;BME280;33272;51.922;7.730;2023-06-14T08:56:46;147897.66;;;21.71;43.17
47530;BME280;33272;51.922;7.730;2023-06-14T08:59:15;147916.88;;;21.79;43.31
47530;BME280;33272;51.922;7.730;2023-06-14T09:01:44;147939.88;;;21.88;43.09
47530;BME280;33272;51.922;7.730;2023-06-14T09:04:13;147930.94;;;21.85;43.11
47530;BME280;33272;51.922;7.730;2023-06-14T09:06:40;147934.75;;;21.86;42.88
47530;BME280;33272;51.922;7.730;2023-06-14T09:09:09;147924.53;;;21.82;43.18
47530;BME280;33272;51.922;7.730;2023-06-14T09:11:36;147957.78;;;21.95;43.35
47530;BME280;33272;51.922;7.730;2023-06-14T09:14:03;147997.41;;;22.11;43.23
47530;BME280;33272;51.922;7.730;2023-06-14T09:16:32;148005.09;;;22.14;43.35
47530;BME280;33272;51.922;7.730;2023-06-14T09:19:00;148021.75;;;22.21;43.05
47530;BME280;33272;51.922;7.730;2023-06-14T09:21:26;148012.81;;;22.17;43.18
47530;BME280;33272;51.922;7.730;2023-06-14T09:23:54;148024.31;;;22.22;43.36
47530;BME280;33272;51.922;7.730;2023-06-14T09:26:23;148053.75;;;22.34;43.63
47530;BME280;33272;51.922;7.730;2023-06-14T09:28:50;148069.09;;;22.40;43.36
47530;BME280;33272;51.922;7.730;2023-06-14T09:31:20;148058.88;;;22.36;43.31
47530;BME280;33272;51.922;7.730;2023-06-14T09:33:49;148058.88;;;22.36;43.67
47530;BME280;33272;51.922;7.730;2023-06-14T09:36:17;148090.84;;;22.49;43.42
47530;BME280;33272;51.922;7.730;2023-06-14T09:38:52;148108.75;;;22.56;43.76
47530;BME280;33272;51.922;7.730;2023-06-14T09:41:27;148104.94;;;22.54;43.67
47530;BME280;33272;51.922;7.730;2023-06-14T09:43:58;148115.16;;;22.58;43.78
47530;BME280;33272;51.922;7.730;2023-06-14T09:46:27;148143.28;;;22.70;43.69
47530;BME280;33272;51.922;7.730;2023-06-14T09:48:55;148167.63;;;22.79;43.57
47530;BME280;33272;51.922;7.730;2023-06-14T09:51:23;148170.16;;;22.80;43.30
47530;BME280;33272;51.922;7.730;2023-06-14T09:53:50;148129.22;;;22.64;43.37
47530;BME280;33272;51.922;7.730;2023-06-14T09:56:23;148103.59;;;22.54;43.41
47530;BME280;33272;51.922;7.730;2023-06-14T09:58:56;148070.34;;;22.40;43.40
47530;BME280;33272;51.922;7.730;2023-06-14T10:01:24;148080.56;;;22.44;43.73
47530;BME280;33272;51.922;7.730;2023-06-14T10:03:57;148097.25;;;22.51;43.55
47530;BME280;33272;51.922;7.730;2023-06-14T10:06:26;148129.22;;;22.64;44.02
47530;BME280;33272;51.922;7.730;2023-06-14T10:08:57;148143.28;;;22.70;44.14
47530;BME280;33272;51.922;7.730;2023-06-14T10:11:27;148163.75;;;22.78;44.22
47530;BME280;33272;51.922;7.730;2023-06-14T10:13:55;148179.13;;;22.84;44.27
47530;BME280;33272;51.922;7.730;2023-06-14T10:16:28;148159.94;;;22.76;44.25
47530;BME280;33272;51.922;7.730;2023-06-14T10:19:05;148179.13;;;22.84;44.72
47530;BME280;33272;51.922;7.730;2023-06-14T10:21:55;148199.63;;;22.92;44.55
47530;BME280;33272;51.922;7.730;2023-06-14T10:24:30;148215.03;;;22.98;44.23
47530;BME280;33272;51.922;7.730;2023-06-14T10:27:00;148241.88;;;23.09;44.48
47530;BME280;33272;51.922;7.730;2023-06-14T10:29:28;148290.50;;;23.28;44.40
47530;BME280;33272;51.922;7.730;2023-06-14T10:31:58;148334.06;;;23.46;44.44
47530;BME280;33272;51.922;7.730;2023-06-14T10:34:27;148363.47;;;23.57;44.39
47530;BME280;33272;51.922;7.730;2023-06-14T10:37:03;148378.81;;;23.64;44.12
47530;BME280;33272;51.922;7.730;2023-06-14T10:39:32;148369.88;;;23.60;44.02
47530;BME280;33272;51.922;7.730;2023-06-14T10:42:02;148343.00;;;23.49;44.14
47530;BME280;33272;51.922;7.730;2023-06-14T10:44:41;148351.97;;;23.53;44.25
47530;BME280;33272;51.922;7.730;2023-06-14T10:47:23;148369.88;;;23.60;44.31
47530;BME280;33272;51.922;7.730;2023-06-14T10:49:54;148392.97;;;23.69;43.56
47530;BME280;33272;51.922;7.730;2023-06-14T10:52:24;148391.69;;;23.69;43.90
47530;BME280;33272;51.922;7.730;2023-06-14T10:55:05;148386.50;;;23.67;43.30
47530;BME280;33272;51.922;7.730;2023-06-14T10:57:37;148369.88;;;23.60;43.81
47530;BME280;33272;51.922;7.730;2023-06-14T11:00:07;148339.13;;;23.48;43.72
47530;BME280;33272;51.922;7.730;2023-06-14T11:12:12;148337.88;;;23.47;43.47
47530;BME280;33272;51.922;7.730;2023-06-14T11:14:41;148341.72;;;23.49;43.42
47530;BME280;33272;51.922;7.730;2023-06-14T11:17:08;148366.03;;;23.58;43.02
47530;BME280;33272;51.922;7.730;2023-06-14T11:19:35;148390.38;;;23.68;43.46
47530;BME280;33272;51.922;7.730;2023-06-14T11:22:02;148391.69;;;23.69;42.98
47530;BME280;33272;51.922;7.730;2023-06-14T11:24:29;148409.59;;;23.76;42.95
47530;BME280;33272;51.922;7.730;2023-06-14T11:26:56;148430.13;;;23.84;42.77
47530;BME280;33272;51.922;7.730;2023-06-14T11:29:23;148440.34;;;23.88;42.70
47530;BME280;33272;51.922;7.730;2023-06-14T11:31:52;148436.53;;;23.87;42.68
47530;BME280;33272;51.922;7.730;2023-06-14T11:34:19;148448.03;;;23.91;42.66
47530;BME280;33272;51.922;7.730;2023-06-14T11:36:47;148458.25;;;23.95;42.78
47530;BME280;33272;51.922;7.730;2023-06-14T11:39:14;148467.22;;;23.99;42.49
47530;BME280;33272;51.922;7.730;2023-06-14T11:41:43;148474.91;;;24.02;42.52
47530;BME280;33272;51.922;7.730;2023-06-14T11:44:10;148471.09;;;24.00;42.49
47530;BME280;33272;51.922;7.730;2023-06-14T11:46:38;148469.81;;;24.00;42.43
47530;BME280;33272;51.922;7.730;2023-06-14T11:49:07;148491.59;;;24.09;41.94
47530;BME280;33272;51.922;7.730;2023-06-14T11:51:35;148482.59;;;24.05;41.61
47530;BME280;33272;51.922;7.730;2023-06-14T11:54:04;148489.00;;;24.08;41.70
47530;BME280;33272;51.922;7.730;2023-06-14T11:56:33;148501.81;;;24.13;41.68
47530;BME280;33272;51.922;7.730;2023-06-14T11:59:02;148549.22;;;24.32;42.26
47530;BME280;33272;51.922;7.730;2023-06-14T12:01:31;148605.63;;;24.54;41.67
47530;BME280;33272;51.922;7.730;2023-06-14T12:03:59;148638.91;;;24.67;41.26
47530;BME280;33272;51.922;7.730;2023-06-14T12:06:30;148649.16;;;24.71;41.23
47530;BME280;33272;51.922;7.730;2023-06-14T12:09:03;148663.25;;;24.77;41.37
47530;BME280;33272;51.922;7.730;2023-06-14T12:11:33;148658.16;;;24.75;40.84
47530;BME280;33272;51.922;7.730;2023-06-14T12:14:03;148677.38;;;24.83;41.03
47530;BME280;33272;51.922;7.730;2023-06-14T12:16:32;148681.25;;;24.84;40.38
47530;BME280;33272;51.922;7.730;2023-06-14T12:19:12;148674.81;;;24.82;40.12
47530;BME280;33272;51.922;7.730;2023-06-14T12:21:41;148677.38;;;24.83;40.46
47530;BME280;33272;51.922;7.730;2023-06-14T12:24:08;148710.69;;;24.96;40.26
47530;BME280;33272;51.922;7.730;2023-06-14T12:26:38;148732.47;;;25.05;40.38
47530;BME280;33272;51.922;7.730;2023-06-14T12:29:07;148742.72;;;25.09;39.97
47530;BME280;33272;51.922;7.730;2023-06-14T12:31:34;148711.94;;;24.96;40.50
47530;BME280;33272;51.922;7.730;2023-06-14T12:34:02;148700.44;;;24.92;40.45
47530;BME280;33272;51.922;7.730;2023-06-14T12:36:29;148718.38;;;24.99;40.48
47530;BME280;33272;51.922;7.730;2023-06-14T12:38:58;148713.28;;;24.97;40.11
47530;BME280;33272;51.922;7.730;2023-06-14T12:41:25;148715.81;;;24.98;40.37
47530;BME280;33272;51.922;7.730;2023-06-14T12:43:52;148705.59;;;24.94;39.95
47530;BME280;33272;51.922;7.730;2023-06-14T12:46:19;148709.41;;;24.95;40.64
47530;BME280;33272;51.922;7.730;2023-06-14T12:48:47;148728.66;;;25.03;39.62
47530;BME280;33272;51.922;7.730;2023-06-14T12:51:14;148724.78;;;25.02;39.69
47530;BME280;33272;51.922;7.730;2023-06-14T12:53:41;148726.06;;;25.02;39.88
47530;BME280;33272;51.922;7.730;2023-06-14T12:56:11;148711.94;;;24.96;39.86
47530;BME280;33272;51.922;7.730;2023-06-14T12:58:37;148717.09;;;24.98;39.96
47530;BME280;33272;51.922;7.730;2023-06-14T13:01:04;148718.38;;;24.99;39.69
47530;BME280;33272;51.922;7.730;2023-06-14T13:03:31;148700.44;;;24.92;39.76
47530;BME280;33272;51.922;7.730;2023-06-14T13:06:00;148697.91;;;24.91;39.78